Time;durP1;ratioP1;P1;durP2;ratioP2;P2;SDS_P1;SDS_P2;PMS_P1;PMS_P2;Temp;Humidity;BMP_temperature;BMP_pressure;BME280_temperature;BME280_humidity;BME280_pressure;Samples;Min_cycle;Max_cycle;Signal;HPM_P1;HPM_P2
2022/08/10 00:01:00;;;;;;;5.13;4.63;;;14.90;99.90;;;;;;5001396;28;90181;-30
2022/08/10 00:03:26;;;;;;;4.45;4.00;;;14.90;99.90;;;;;;5000665;28;89634;-32
2022/08/10 00:05:53;;;;;;;5.32;4.82;;;14.80;99.90;;;;;;5001205;28;89221;-35
2022/08/10 00:08:20;;;;;;;10.18;5.03;;;14.80;99.90;;;;;;5000752;28;89909;-34
2022/08/10 00:10:45;;;;;;;5.40;4.90;;;14.70;99.90;;;;;;5000165;28;90078;-34
2022/08/10 00:13:11;;;;;;;6.88;4.78;;;14.70;99.90;;;;;;5000614;28;88527;-31
2022/08/10 00:15:37;;;;;;;5.88;5.30;;;14.60;99.90;;;;;;5000013;28;88239;-34
2022/08/10 00:18:02;;;;;;;6.97;6.32;;;14.60;99.90;;;;;;4998713;28;90252;-32
2022/08/10 00:20:28;;;;;;;8.63;6.45;;;14.70;99.90;;;;;;5039243;22;89544;-32
2022/08/10 00:22:53;;;;;;;5.78;4.72;;;14.60;99.90;;;;;;5001053;28;89109;-30
2022/08/10 00:25:19;;;;;;;7.68;6.05;;;14.60;99.90;;;;;;5000639;28;88228;-34
2022/08/10 00:27:45;;;;;;;7.18;6.50;;;14.70;99.90;;;;;;5000210;28;90312;-35
2022/08/10 00:30:11;;;;;;;8.85;7.03;;;14.70;99.90;;;;;;5000532;28;88714;-33
2022/08/10 00:32:36;;;;;;;7.22;6.18;;;14.70;99.90;;;;;;5000534;28;90423;-33
2022/08/10 00:35:03;;;;;;;7.07;5.53;;;14.70;99.90;;;;;;5000526;28;89832;-35
2022/08/10 00:37:28;;;;;;;6.57;5.90;;;14.70;99.90;;;;;;5000349;28;91701;-35
2022/08/10 00:39:54;;;;;;;10.75;5.85;;;14.70;99.90;;;;;;4999935;28;91017;-34
2022/08/10 00:42:19;;;;;;;6.60;5.95;;;14.70;99.90;;;;;;5000140;28;89062;-31
2022/08/10 00:44:52;;;;;;;7.28;5.93;;;14.70;99.90;;;;;;5000524;28;88473;-32
2022/08/10 00:47:18;;;;;;;9.05;5.93;;;14.70;99.90;;;;;;5000016;28;89073;-30
2022/08/10 00:49:43;;;;;;;12.23;6.95;;;14.70;99.90;;;;;;4999898;28;89722;-35
2022/08/10 00:52:12;;;;;;;7.47;6.22;;;14.70;99.90;;;;;;4999689;28;89711;-32
2022/08/10 00:54:39;;;;;;;10.10;6.75;;;14.70;99.90;;;;;;5000325;28;89529;-32
2022/08/10 00:57:05;;;;;;;7.32;6.65;;;14.70;99.90;;;;;;5000489;28;90136;-31
2022/08/10 00:59:31;;;;;;;11.50;8.45;;;14.60;99.90;;;;;;4999565;28;90204;-34
2022/08/10 01:01:58;;;;;;;9.07;7.20;;;14.60;99.90;;;;;;5000304;28;89619;-32
2022/08/10 01:04:23;;;;;;;8.23;7.43;;;14.60;99.90;;;;;;4999466;28;89348;-32
2022/08/10 01:07:20;;;;;;;10.50;7.05;;;14.60;99.90;;;;;;4998457;28;90280;-33
2022/08/10 01:10:23;;;;;;;8.30;7.28;;;14.60;99.90;;;;;;4999663;28;89838;-35
2022/08/10 01:13:08;;;;;;;7.60;6.32;;;14.50;99.90;;;;;;4999892;28;90967;-31
2022/08/10 01:16:25;;;;;;;8.75;7.82;;;14.50;99.90;;;;;;5000210;28;88071;-31
2022/08/10 01:19:23;;;;;;;8.48;7.03;;;14.50;99.90;;;;;;4956021;28;90839;-33
2022/08/10 01:22:07;;;;;;;8.68;7.03;;;14.60;99.90;;;;;;4956028;28;89915;-33
2022/08/10 01:25:02;;;;;;;10.15;7.72;;;14.60;99.90;;;;;;5001206;28;89729;-32
2022/08/10 01:27:38;;;;;;;8.00;7.20;;;14.50;99.90;;;;;;4990050;28;88775;-33
2022/08/10 01:30:26;;;;;;;9.13;8.07;;;14.50;99.90;;;;;;4999455;28;90285;-31
2022/08/10 01:32:57;;;;;;;9.57;8.07;;;14.50;99.90;;;;;;4998469;28;90795;-32
2022/08/10 01:35:44;;;;;;;9.77;8.38;;;14.50;99.90;;;;;;4998862;28;90409;-32
2022/08/10 01:38:17;;;;;;;7.88;7.07;;;14.50;99.90;;;;;;4999157;28;89265;-32
2022/08/10 01:40:52;;;;;;;9.13;7.88;;;14.50;99.90;;;;;;4999713;28;90435;-35
2022/08/10 01:43:19;;;;;;;10.90;8.07;;;14.50;99.90;;;;;;4999112;28;89499;-34
2022/08/10 01:45:50;;;;;;;12.77;8.82;;;14.50;99.90;;;;;;4985755;28;90531;-31
2022/08/10 01:48:29;;;;;;;9.13;8.18;;;14.40;99.90;;;;;;4999778;28;90415;-31
2022/08/10 01:51:07;;;;;;;8.43;7.63;;;14.50;99.90;;;;;;4999522;28;90049;-35
2022/08/10 01:53:39;;;;;;;12.68;8.63;;;14.40;99.90;;;;;;4999786;28;91011;-33
2022/08/10 01:56:07;;;;;;;9.65;8.57;;;14.40;99.90;;;;;;4998551;28;90191;-34
2022/08/10 01:58:35;;;;;;;12.40;8.38;;;14.40;99.90;;;;;;4999432;28;88685;-31
2022/08/10 02:01:03;;;;;;;8.73;7.82;;;14.40;99.90;;;;;;4999624;28;90183;-30
2022/08/10 02:03:30;;;;;;;13.50;9.13;;;14.30;99.90;;;;;;4999290;28;91247;-32
2022/08/10 02:05:57;;;;;;;11.33;8.93;;;14.30;99.90;;;;;;4997464;28;89622;-33
2022/08/10 02:08:25;;;;;;;14.20;9.93;;;14.30;99.90;;;;;;4998644;28;89148;-34
2022/08/10 02:10:53;;;;;;;9.63;8.60;;;14.30;99.90;;;;;;4999679;28;90465;-32
2022/08/10 02:13:20;;;;;;;9.63;8.45;;;14.30;99.90;;;;;;4998944;28;90624;-31
2022/08/10 02:15:48;;;;;;;9.43;7.88;;;14.30;99.90;;;;;;4999290;28;89302;-31
2022/08/10 02:18:15;;;;;;;11.43;9.07;;;14.30;99.90;;;;;;4997867;28;89414;-31
2022/08/10 02:20:47;;;;;;;11.48;9.18;;;14.20;99.90;;;;;;4998539;28;90290;-32
2022/08/10 02:23:23;;;;;;;9.38;8.40;;;14.20;99.90;;;;;;4997822;28;91058;-32
2022/08/10 02:25:50;;;;;;;11.85;9.80;;;14.20;99.90;;;;;;4999011;28;91182;-32
2022/08/10 02:28:19;;;;;;;14.90;9.95;;;14.20;99.90;;;;;;4999148;28;88891;-31
2022/08/10 02:30:46;;;;;;;12.15;10.30;;;14.30;99.90;;;;;;4998888;28;90469;-31
2022/08/10 02:33:16;;;;;;;10.85;8.93;;;14.20;99.90;;;;;;4996922;28;90067;-33
2022/08/10 02:35:42;;;;;;;11.65;10.45;;;14.20;99.90;;;;;;4998619;28;89959;-35
2022/08/10 02:38:11;;;;;;;12.95;10.65;;;14.20;99.90;;;;;;4998144;28;89191;-36
2022/08/10 02:40:40;;;;;;;;;;;14.30;99.90;;;;;;4998973;28;91168;-31
2022/08/10 02:43:19;;;;;;;14.77;10.75;;;14.30;99.90;;;;;;4999969;28;89991;-32
2022/08/10 02:45:48;;;;;;;12.52;10.48;;;14.20;99.90;;;;;;4998141;28;89899;-34
2022/08/10 02:48:17;;;;;;;12.82;9.40;;;14.20;99.90;;;;;;4997309;28;89121;-32
2022/08/10 02:50:54;;;;;;;14.20;11.43;;;14.20;99.90;;;;;;4999048;28;90272;-31
2022/08/10 02:53:39;;;;;;;14.80;11.73;;;14.10;99.90;;;;;;4997358;28;89523;-33
2022/08/10 02:56:37;;;;;;;12.18;10.43;;;14.10;99.90;;;;;;4997693;28;89331;-32
2022/08/10 02:59:23;;;;;;;12.02;10.23;;;14.10;99.90;;;;;;4996840;28;89103;-33
2022/08/10 03:01:54;;;;;;;11.50;10.23;;;14.10;99.90;;;;;;4997618;28;90100;-35
2022/08/10 03:04:34;;;;;;;16.73;11.93;;;14.10;99.90;;;;;;4996760;28;90056;-35
2022/08/10 03:07:04;;;;;;;11.93;9.43;;;14.00;99.90;;;;;;4997337;28;89655;-32
2022/08/10 03:09:32;;;;;;;12.98;10.68;;;14.00;99.90;;;;;;4997335;28;89186;-31
2022/08/10 03:11:59;;;;;;;13.10;10.18;;;13.90;99.90;;;;;;4997838;28;90290;-31
2022/08/10 03:14:26;;;;;;;14.23;9.83;;;14.00;99.90;;;;;;4997369;28;89344;-34
2022/08/10 03:16:54;;;;;;;13.65;10.20;;;13.90;99.90;;;;;;4998067;28;90435;-33
2022/08/10 03:19:22;;;;;;;17.02;11.57;;;14.00;99.90;;;;;;4997079;28;88367;-35
2022/08/10 03:21:48;;;;;;;;;;;13.90;99.90;;;;;;4997189;28;90443;-32
2022/08/10 03:24:21;;;;;;;13.63;11.65;;;13.90;99.90;;;;;;4998999;28;89750;-31
2022/08/10 03:26:50;;;;;;;13.02;10.75;;;13.90;99.90;;;;;;4983093;28;89971;-33
2022/08/10 03:29:19;;;;;;;14.98;11.43;;;13.90;99.90;;;;;;4997214;28;90030;-34
2022/08/10 03:31:45;;;;;;;13.35;11.68;;;13.80;99.90;;;;;;4999987;28;90823;-34
2022/08/10 03:34:12;;;;;;;15.63;11.55;;;13.90;99.90;;;;;;5000511;28;90053;-32
2022/08/10 03:36:37;;;;;;;13.20;11.57;;;13.80;99.90;;;;;;5000453;28;89627;-33
2022/08/10 03:39:03;;;;;;;15.00;11.55;;;13.80;99.90;;;;;;5000978;28;89838;-30
2022/08/10 03:41:35;;;;;;;14.98;11.32;;;13.80;99.90;;;;;;5000408;28;90292;-31
2022/08/10 03:44:03;;;;;;;14.35;12.05;;;13.80;99.90;;;;;;4995243;28;89991;-29
2022/08/10 03:46:30;;;;;;;16.55;12.00;;;13.80;99.90;;;;;;4992894;28;89115;-33
2022/08/10 03:49:00;;;;;;;14.18;12.68;;;13.80;99.90;;;;;;5000628;28;89393;-31
2022/08/10 03:51:26;;;;;;;14.02;12.38;;;13.80;99.90;;;;;;4999812;28;90442;-31
2022/08/10 03:53:52;;;;;;;13.75;11.35;;;13.80;99.90;;;;;;5000497;28;89619;-31
2022/08/10 03:56:18;;;;;;;16.67;11.45;;;13.80;99.90;;;;;;5000262;28;89762;-32
2022/08/10 03:58:44;;;;;;;16.10;11.82;;;13.80;99.90;;;;;;5000420;28;88471;-32
2022/08/10 04:01:10;;;;;;;12.23;10.82;;;13.80;99.90;;;;;;5000419;28;90469;-30
2022/08/10 04:03:36;;;;;;;13.35;11.40;;;13.80;99.90;;;;;;4999200;28;90561;-31
2022/08/10 04:06:02;;;;;;;14.95;11.40;;;13.80;99.90;;;;;;5000693;28;90513;-35
2022/08/10 04:08:27;;;;;;;14.63;11.48;;;13.70;99.90;;;;;;5000283;28;88259;-31
2022/08/10 04:10:53;;;;;;;15.40;11.80;;;13.80;99.90;;;;;;4999712;28;90044;-31
2022/08/10 04:13:19;;;;;;;13.25;9.77;;;13.70;99.90;;;;;;4999487;28;89875;-34
2022/08/10 04:15:44;;;;;;;15.65;12.38;;;13.70;99.90;;;;;;4999788;28;89728;-34
2022/08/10 04:18:10;;;;;;;12.65;10.32;;;13.80;99.90;;;;;;4999918;28;88273;-33
2022/08/10 04:20:48;;;;;;;15.90;13.43;;;13.80;99.90;;;;;;4999447;28;91755;-32
2022/08/10 04:23:24;;;;;;;11.93;10.50;;;13.80;99.90;;;;;;4999805;28;89708;-32
2022/08/10 04:25:51;;;;;;;16.23;11.32;;;13.70;99.90;;;;;;4999609;28;89736;-34
2022/08/10 04:28:17;;;;;;;18.63;11.57;;;13.70;99.90;;;;;;4998912;28;88995;-33
2022/08/10 04:30:45;;;;;;;17.35;12.45;;;13.70;99.90;;;;;;4999711;28;89327;-33
2022/08/10 04:33:13;;;;;;;16.92;13.13;;;13.70;99.90;;;;;;4998723;28;89376;-32
2022/08/10 04:35:40;;;;;;;16.65;12.45;;;13.70;99.90;;;;;;4999575;28;89643;-36
2022/08/10 04:38:08;;;;;;;20.48;13.57;;;13.70;99.90;;;;;;4999688;28;88357;-32
2022/08/10 04:40:33;;;;;;;15.85;11.55;;;13.70;99.90;;;;;;4999818;28;91633;-31
2022/08/10 04:43:04;;;;;;;13.45;11.32;;;13.70;99.90;;;;;;4999055;28;89892;-32
2022/08/10 04:45:30;;;;;;;12.75;10.60;;;13.80;99.90;;;;;;4999242;28;90123;-32
2022/08/10 04:47:56;;;;;;;13.95;11.65;;;13.80;99.90;;;;;;4999990;28;89584;-31
2022/08/10 04:50:22;;;;;;;13.68;11.13;;;13.80;99.90;;;;;;4999334;28;90456;-33
2022/08/10 04:52:47;;;;;;;14.00;10.80;;;13.80;99.90;;;;;;4999118;28;89533;-32
2022/08/10 04:55:13;;;;;;;14.82;10.63;;;13.80;99.90;;;;;;4999716;28;90536;-30
2022/08/10 04:57:38;;;;;;;15.00;11.95;;;13.80;99.90;;;;;;4999779;28;88831;-32
2022/08/10 05:00:05;;;;;;;12.07;10.05;;;13.90;99.90;;;;;;4999663;28;89535;-32
2022/08/10 05:02:31;;;;;;;17.63;10.80;;;13.90;99.90;;;;;;4998889;28;89988;-33
2022/08/10 05:04:57;;;;;;;11.60;10.25;;;14.00;99.90;;;;;;4998978;28;89349;-31
2022/08/10 05:07:22;;;;;;;10.80;9.50;;;14.20;99.90;;;;;;4999414;28;89804;-30
2022/08/10 05:09:49;;;;;;;12.43;11.25;;;14.30;99.90;;;;;;5000188;28;90298;-32
2022/08/10 05:12:15;;;;;;;13.15;10.35;;;14.50;99.90;;;;;;4998606;28;90360;-32
2022/08/10 05:14:41;;;;;;;10.50;9.43;;;14.70;99.90;;;;;;4998792;28;89660;-33
2022/08/10 05:17:06;;;;;;;14.95;11.80;;;14.80;99.90;;;;;;4998933;28;90107;-34
2022/08/10 05:19:32;;;;;;;15.30;9.68;;;14.90;99.90;;;;;;4998885;28;90757;-30
2022/08/10 05:21:58;;;;;;;15.25;10.65;;;15.00;99.90;;;;;;4999579;28;89567;-31
2022/08/10 05:24:23;;;;;;;11.15;9.95;;;15.00;99.90;;;;;;4996739;28;91337;-32
2022/08/10 05:26:49;;;;;;;12.85;10.60;;;15.00;99.90;;;;;;4997506;28;89419;-32
2022/08/10 05:29:14;;;;;;;9.15;7.70;;;15.10;99.90;;;;;;4998604;28;90064;-35
2022/08/10 05:31:40;;;;;;;17.73;9.32;;;15.10;99.90;;;;;;4999434;28;88884;-33
2022/08/10 05:34:05;;;;;;;11.23;10.13;;;15.10;99.90;;;;;;4999821;28;89514;-35
2022/08/10 05:36:32;;;;;;;11.15;9.32;;;15.10;99.90;;;;;;4998875;28;88890;-35
2022/08/10 05:39:00;;;;;;;10.32;9.10;;;15.10;99.90;;;;;;4992844;28;92000;-31
2022/08/10 05:41:27;;;;;;;11.88;9.68;;;15.20;99.90;;;;;;4990924;28;90850;-31
2022/08/10 05:43:54;;;;;;;13.15;9.27;;;15.20;99.90;;;;;;4999817;28;90624;-32
2022/08/10 05:46:19;;;;;;;11.25;10.15;;;15.20;99.90;;;;;;4999345;28;88728;-34
2022/08/10 05:48:45;;;;;;;11.60;8.82;;;15.20;99.90;;;;;;4997884;28;90236;-34
2022/08/10 05:51:11;;;;;;;11.25;9.57;;;15.20;99.90;;;;;;4999623;28;89826;-30
2022/08/10 05:53:37;;;;;;;13.68;10.55;;;15.20;99.90;;;;;;4997925;28;89564;-34
2022/08/10 05:56:06;;;;;;;13.25;9.77;;;15.20;99.90;;;;;;4999058;28;89313;-35
2022/08/10 05:58:36;;;;;;;12.93;10.80;;;15.20;99.90;;;;;;4999298;28;90893;-31
2022/08/10 06:01:11;;;;;;;13.55;10.30;;;15.30;99.90;;;;;;4998443;28;89407;-33
2022/08/10 06:03:43;;;;;;;12.02;10.27;;;15.30;99.90;;;;;;4998037;28;90864;-32
2022/08/10 06:06:11;;;;;;;12.15;10.23;;;15.40;99.90;;;;;;4986817;28;88209;-33
2022/08/10 06:08:39;;;;;;;12.98;9.45;;;15.50;99.90;;;;;;4979269;28;89357;-32
2022/08/10 06:11:06;;;;;;;10.27;9.07;;;15.60;99.90;;;;;;4988393;28;91398;-32
2022/08/10 06:16:20;;;;;;;16.23;11.50;;;15.90;99.90;;;;;;4997956;28;88457;-31
2022/08/10 06:18:47;;;;;;;11.35;9.95;;;16.10;99.90;;;;;;4998747;28;90306;-31
2022/08/10 06:21:15;;;;;;;10.57;9.48;;;16.30;99.90;;;;;;4996498;28;89794;-33
2022/08/10 06:23:41;;;;;;;13.10;9.88;;;16.40;99.90;;;;;;4998789;28;89690;-32
2022/08/10 06:26:07;;;;;;;11.93;9.35;;;16.50;99.90;;;;;;4999267;28;90246;-32
2022/08/10 06:28:37;;;;;;;11.30;8.73;;;16.60;99.90;;;;;;4998263;28;90379;-30
2022/08/10 06:31:05;;;;;;;12.60;9.80;;;16.60;99.90;;;;;;4998764;28;89962;-30
2022/08/10 06:33:34;;;;;;;11.93;8.98;;;16.70;99.90;;;;;;4997990;28;90284;-35
2022/08/10 06:36:02;;;;;;;10.02;9.00;;;16.70;99.90;;;;;;4998852;28;89644;-33
2022/08/10 06:38:31;;;;;;;9.93;8.82;;;16.80;99.90;;;;;;4998166;28;91818;-35
2022/08/10 06:41:01;;;;;;;9.43;8.48;;;16.90;99.90;;;;;;4998498;28;90256;-34
2022/08/10 06:43:29;;;;;;;9.48;8.57;;;17.00;99.90;;;;;;4998740;28;89933;-35
2022/08/10 06:45:59;;;;;;;;;;;17.10;99.90;;;;;;5000059;28;88308;-35
2022/08/10 06:48:36;;;;;;;9.00;6.72;;;17.20;99.90;;;;;;4999257;28;90175;-33
2022/08/10 06:51:05;;;;;;;9.25;8.32;;;17.40;99.90;;;;;;4996960;28;90035;-32
2022/08/10 06:53:44;;;;;;;8.00;7.20;;;17.60;99.90;;;;;;4997682;28;89543;-32
2022/08/10 06:56:14;;;;;;;8.43;7.63;;;17.80;99.90;;;;;;4997330;28;88080;-32
2022/08/10 06:58:46;;;;;;;10.68;7.65;;;18.00;99.90;;;;;;4998905;28;90335;-33
2022/08/10 07:01:14;;;;;;;13.07;8.38;;;18.10;99.90;;;;;;4997910;28;89726;-35
2022/08/10 07:03:47;;;;;;;8.13;6.70;;;18.30;99.90;;;;;;4998309;28;89582;-33
2022/08/10 07:06:15;;;;;;;9.23;7.70;;;18.50;99.90;;;;;;5001157;28;87975;-32
2022/08/10 07:08:41;;;;;;;13.32;8.60;;;18.60;99.90;;;;;;5002176;28;90228;-33
2022/08/10 07:11:08;;;;;;;11.43;9.65;;;18.80;99.90;;;;;;5001905;28;89636;-32
2022/08/10 07:13:37;;;;;;;8.75;7.50;;;18.90;99.90;;;;;;5001217;28;89999;-31
2022/08/10 07:16:08;;;;;;;15.02;7.25;;;19.10;99.90;;;;;;5002333;28;89409;-33
2022/08/10 07:18:36;;;;;;;11.85;8.23;;;19.40;99.90;;;;;;5001468;28;91513;-33
2022/08/10 07:21:03;;;;;;;8.32;7.47;;;19.50;99.90;;;;;;5000226;28;91179;-32
2022/08/10 07:23:29;;;;;;;7.88;7.07;;;19.50;99.90;;;;;;5001088;28;90787;-35
2022/08/10 07:25:56;;;;;;;17.70;7.60;;;19.60;99.90;;;;;;5002301;28;88797;-33
2022/08/10 07:28:23;;;;;;;8.43;6.10;;;19.70;99.90;;;;;;5001280;28;90221;-33
2022/08/10 07:30:50;;;;;;;6.63;5.95;;;19.70;99.90;;;;;;5008727;28;89742;-33
2022/08/10 07:33:20;;;;;;;5.10;4.68;;;19.90;99.90;;;;;;5006909;28;89477;-32
2022/08/10 07:35:47;;;;;;;8.77;6.10;;;20.10;99.90;;;;;;5006441;28;89156;-34
2022/08/10 07:38:33;;;;;;;7.55;6.65;;;20.30;99.90;;;;;;5009063;28;90331;-34
2022/08/10 07:41:00;;;;;;;7.00;5.75;;;20.40;99.90;;;;;;4986189;28;89768;-31
2022/08/10 07:43:30;;;;;;;5.93;5.40;;;20.60;99.90;;;;;;4999307;28;89479;-35
2022/08/10 07:45:57;;;;;;;8.25;6.30;;;20.70;99.90;;;;;;4999795;28;89006;-33
2022/08/10 07:48:31;;;;;;;6.30;5.72;;;20.80;99.90;;;;;;4998646;28;90493;-32
2022/08/10 07:51:00;;;;;;;8.13;6.40;;;20.90;99.90;;;;;;4993267;28;91056;-31
2022/08/10 07:53:31;;;;;;;4.22;3.83;;;21.00;99.90;;;;;;4991396;28;90919;-32
2022/08/10 07:55:58;;;;;;;6.20;4.05;;;21.00;99.90;;;;;;4999267;28;88574;-35
2022/08/10 07:58:29;;;;;;;5.57;4.97;;;21.10;99.90;;;;;;4998437;28;90192;-32
2022/08/10 08:00:58;;;;;;;6.47;4.55;;;21.20;99.90;;;;;;4998560;28;89042;-31
2022/08/10 08:03:27;;;;;;;7.45;5.38;;;21.30;99.90;;;;;;4999032;28;89531;-34
2022/08/10 08:05:56;;;;;;;8.60;5.15;;;21.40;99.90;;;;;;4998744;28;88709;-34
2022/08/10 08:08:22;;;;;;;7.80;4.65;;;21.60;99.90;;;;;;4997256;28;89010;-34
2022/08/10 08:10:49;;;;;;;5.75;4.97;;;21.70;99.90;;;;;;4998635;28;90562;-31
2022/08/10 08:13:16;;;;;;;5.63;5.13;;;21.90;99.90;;;;;;4997056;28;90796;-33
2022/08/10 08:15:43;;;;;;;6.88;5.93;;;22.00;99.90;;;;;;4997799;28;89574;-33
2022/08/10 08:18:11;;;;;;;11.48;6.05;;;22.10;99.90;;;;;;4998151;28;90453;-36
2022/08/10 08:20:38;;;;;;;8.27;5.65;;;22.20;99.90;;;;;;4998071;28;90093;-32
2022/08/10 08:23:04;;;;;;;7.20;4.03;;;22.30;99.90;;;;;;4998266;28;89823;-34
2022/08/10 08:25:32;;;;;;;4.68;4.28;;;22.30;99.90;;;;;;4998591;28;89501;-34
2022/08/10 08:28:00;;;;;;;5.40;4.88;;;22.40;99.90;;;;;;4998052;28;90261;-34
2022/08/10 08:30:27;;;;;;;6.63;4.95;;;22.60;99.90;;;;;;4997375;28;90034;-32
2022/08/10 08:32:54;;;;;;;5.53;4.60;;;22.60;99.90;;;;;;4997766;28;89592;-34
2022/08/10 08:35:21;;;;;;;8.07;4.67;;;22.60;99.90;;;;;;4998335;28;89248;-32
2022/08/10 08:37:51;;;;;;;5.22;4.20;;;22.60;99.90;;;;;;4998292;28;89146;-31
2022/08/10 08:40:26;;;;;;;6.05;4.60;;;22.70;99.90;;;;;;4997268;28;90373;-33
2022/08/10 08:43:11;;;;;;;11.30;4.63;;;22.90;99.90;;;;;;4997388;28;89951;-33
2022/08/10 08:46:05;;;;;;;5.10;4.53;;;23.10;99.90;;;;;;4998664;28;89402;-35
2022/08/10 08:48:55;;;;;;;5.32;4.55;;;23.30;99.90;;;;;;4993041;28;89891;-33
2022/08/10 08:51:30;;;;;;;5.30;4.60;;;23.60;99.90;;;;;;4997806;28;89695;-33
2022/08/10 08:54:02;;;;;;;8.38;3.97;;;23.60;99.90;;;;;;4997616;28;89250;-32
2022/08/10 08:56:39;;;;;;;6.00;4.47;;;23.70;99.90;;;;;;4997227;28;89587;-32
2022/08/10 08:59:23;;;;;;;5.90;4.25;;;23.80;99.90;;;;;;4995922;28;90281;-32
2022/08/10 09:02:13;;;;;;;4.00;3.70;;;23.90;99.90;;;;;;4993835;28;90392;-35
2022/08/10 09:04:48;;;;;;;4.35;3.92;;;24.00;99.90;;;;;;4988679;28;90503;-32
2022/08/10 09:07:34;;;;;;;5.20;4.18;;;24.20;99.90;;;;;;4998010;28;90105;-32
2022/08/10 09:10:03;;;;;;;6.50;4.45;;;24.20;99.90;;;;;;4985062;28;90286;-33
2022/08/10 09:12:42;;;;;;;6.10;4.88;;;24.30;99.90;;;;;;4995952;28;90611;-33
2022/08/10 09:15:16;;;;;;;4.63;4.18;;;24.30;99.90;;;;;;4997075;28;90279;-32
2022/08/10 09:18:01;;;;;;;5.28;4.18;;;24.30;99.90;;;;;;4997088;28;87943;-35
2022/08/10 09:20:41;;;;;;;4.45;4.05;;;24.40;99.90;;;;;;4996543;28;90117;-33
2022/08/10 09:23:35;;;;;;;5.35;4.00;;;24.50;99.90;;;;;;4997628;28;89522;-33
2022/08/10 09:26:12;;;;;;;6.18;3.60;;;24.60;99.90;;;;;;4992970;28;90085;-33
2022/08/10 09:28:41;;;;;;;9.15;5.30;;;24.60;99.90;;;;;;4994226;28;89028;-36
2022/08/10 09:31:09;;;;;;;6.30;3.80;;;24.70;99.90;;;;;;4997830;28;90257;-36
2022/08/10 09:34:06;;;;;;;7.15;3.90;;;24.70;99.90;;;;;;4997670;28;90241;-35
2022/08/10 09:36:40;;;;;;;3.63;3.07;;;24.90;99.90;;;;;;4997730;28;89082;-32
2022/08/10 09:39:30;;;;;;;3.58;3.22;;;25.10;99.90;;;;;;4988271;28;89559;-32
2022/08/10 09:42:23;;;;;;;4.70;3.20;;;25.20;99.90;;;;;;4995431;28;90212;-32
2022/08/10 09:44:49;;;;;;;4.75;3.47;;;25.20;99.90;;;;;;4997426;28;89829;-36
2022/08/10 09:47:35;;;;;;;3.28;2.97;;;25.20;99.90;;;;;;4997978;28;89911;-35
2022/08/10 09:50:09;;;;;;;4.25;3.42;;;25.30;99.90;;;;;;4996958;28;88284;-36
2022/08/10 09:53:02;;;;;;;5.28;3.55;;;25.40;99.90;;;;;;4997409;28;88028;-34
2022/08/10 09:55:58;;;;;;;2.90;2.70;;;25.50;99.90;;;;;;4996050;28;92345;-36
2022/08/10 09:58:30;;;;;;;3.10;2.80;;;25.50;99.90;;;;;;4997285;28;90275;-32
2022/08/10 10:01:19;;;;;;;2.70;2.47;;;25.80;99.90;;;;;;4997598;28;89334;-36
2022/08/10 10:03:54;;;;;;;4.75;3.20;;;25.90;99.90;;;;;;4996913;28;90714;-32
2022/08/10 10:06:36;;;;;;;3.53;3.22;;;25.90;99.90;;;;;;4997094;28;89974;-35
2022/08/10 10:09:13;;;;;;;3.47;2.95;;;26.00;99.90;;;;;;4997157;28;89756;-34
2022/08/10 10:11:51;;;;;;;2.13;2.03;;;26.10;99.90;;;;;;4997926;28;88134;-34
2022/08/10 10:15:18;;;;;;;;;;;26.10;99.90;;;;;;4997142;28;90700;-33
2022/08/10 10:17:46;;;;;;;5.03;3.00;;;26.10;99.90;;;;;;4998066;28;89877;-34
2022/08/10 10:20:26;;;;;;;3.17;2.63;;;26.30;99.90;;;;;;4988400;28;89640;-35
2022/08/10 10:23:10;;;;;;;4.32;2.78;;;26.40;99.90;;;;;;4982597;28;89628;-35
2022/08/10 10:25:43;;;;;;;5.28;2.45;;;26.50;99.90;;;;;;4996535;28;90579;-32
2022/08/10 10:28:27;;;;;;;2.92;2.22;;;26.60;93.10;;;;;;4996467;28;89996;-33
2022/08/10 10:31:08;;;;;;;2.53;2.03;;;26.70;92.80;;;;;;4991285;28;89816;-33
2022/08/10 10:34:01;;;;;;;3.30;2.90;;;26.70;93.60;;;;;;4998891;28;89404;-33
2022/08/10 10:36:29;;;;;;;3.55;2.08;;;26.70;94.90;;;;;;4986946;28;90330;-32
2022/08/10 10:38:57;;;;;;;;;;;26.70;85.00;;;;;;4984744;28;90461;-33
2022/08/10 10:41:31;;;;;;;;;;;26.80;85.30;;;;;;5004543;28;89347;-35
2022/08/10 10:44:44;;;;;;;3.28;2.38;;;26.80;88.40;;;;;;5003772;28;89644;-32
2022/08/10 10:47:33;;;;;;;2.13;1.95;;;26.90;77.80;;;;;;5002248;28;90747;-34
2022/08/10 10:50:26;;;;;;;1.75;1.65;;;26.80;83.60;;;;;;4989559;28;90696;-36
2022/08/10 10:53:23;;;;;;;2.38;2.17;;;26.90;73.30;;;;;;5001954;28;89480;-33
2022/08/10 10:56:08;;;;;;;2.50;2.13;;;26.90;72.50;;;;;;5002303;28;89425;-34
2022/08/10 10:58:58;;;;;;;2.80;2.00;;;26.70;71.60;;;;;;5001539;28;90356;-33
2022/08/10 11:01:51;;;;;;;7.40;2.25;;;26.70;69.70;;;;;;5000983;28;89448;-35
2022/08/10 11:04:35;;;;;;;3.08;1.88;;;26.70;68.60;;;;;;5001824;28;89654;-34
2022/08/10 11:07:14;;;;;;;7.90;1.77;;;26.70;65.70;;;;;;4990285;28;88138;-32
2022/08/10 11:09:42;;;;;;;2.50;2.00;;;26.70;66.20;;;;;;5001586;28;90356;-35
2022/08/10 11:12:12;;;;;;;2.65;1.73;;;26.80;68.70;;;;;;5001180;28;90141;-33
2022/08/10 11:15:01;;;;;;;3.25;1.45;;;26.90;65.40;;;;;;5000890;28;89485;-32
2022/08/10 11:17:37;;;;;;;2.05;1.95;;;26.80;63.20;;;;;;5001158;28;89097;-34
2022/08/10 11:20:37;;;;;;;1.70;1.60;;;26.60;63.70;;;;;;5001437;28;90125;-34
2022/08/10 11:23:11;;;;;;;1.90;1.80;;;26.70;69.10;;;;;;5000866;28;90264;-33
2022/08/10 11:25:59;;;;;;;2.17;1.73;;;26.80;64.90;;;;;;5001576;28;89232;-35
2022/08/10 11:28:44;;;;;;;1.55;1.45;;;26.90;62.80;;;;;;5001822;28;88378;-33
2022/08/10 11:31:23;;;;;;;6.45;1.90;;;26.90;62.90;;;;;;5000892;28;90306;-34
2022/08/10 11:33:57;;;;;;;5.65;2.80;;;26.80;64.80;;;;;;5000887;28;89949;-36
2022/08/10 11:36:30;;;;;;;2.35;2.15;;;26.90;63.50;;;;;;5001542;28;89634;-33
2022/08/10 11:39:08;;;;;;;2.42;2.22;;;26.90;62.00;;;;;;5001192;28;89207;-35
2022/08/10 11:41:49;;;;;;;2.50;2.25;;;26.80;62.90;;;;;;5001318;28;90165;-32
2022/08/10 11:44:49;;;;;;;2.20;2.00;;;26.80;61.30;;;;;;4980415;28;92264;-34
2022/08/10 11:47:22;;;;;;;2.03;1.90;;;26.80;60.00;;;;;;4999051;28;93630;-33
2022/08/10 11:50:06;;;;;;;2.65;1.90;;;26.80;62.60;;;;;;5001588;28;88780;-35
2022/08/10 11:52:52;;;;;;;3.90;2.35;;;26.80;63.10;;;;;;4999511;28;89449;-33
2022/08/10 11:55:19;;;;;;;5.88;2.33;;;26.80;65.70;;;;;;5000594;28;89714;-33
2022/08/10 11:57:46;;;;;;;2.72;1.80;;;26.90;66.70;;;;;;5002079;28;90897;-33
2022/08/10 12:00:12;;;;;;;2.10;1.73;;;26.90;63.20;;;;;;5001247;28;88563;-32
2022/08/10 12:02:40;;;;;;;2.08;1.80;;;26.90;63.70;;;;;;5001072;28;90652;-33
2022/08/10 12:05:15;;;;;;;3.92;2.60;;;26.90;64.60;;;;;;5001410;28;90500;-35
2022/08/10 12:07:52;;;;;;;2.17;1.80;;;27.00;63.90;;;;;;5000901;28;89562;-34
2022/08/10 12:10:20;;;;;;;1.63;1.52;;;27.20;59.70;;;;;;5000120;28;88080;-32
2022/08/10 12:12:49;;;;;;;;;;;27.20;60.10;;;;;;5001559;28;90046;-32
2022/08/10 12:15:23;;;;;;;3.58;1.90;;;27.20;62.60;;;;;;5002133;28;90273;-31
2022/08/10 12:17:54;;;;;;;2.42;2.22;;;27.20;61.50;;;;;;5001328;28;89747;-34
2022/08/10 12:20:23;;;;;;;1.70;1.60;;;27.20;61.60;;;;;;5035757;22;88963;-33
2022/08/10 12:23:09;;;;;;;8.23;2.50;;;27.20;61.80;;;;;;4979104;28;90653;-35
2022/08/10 12:25:49;;;;;;;3.13;2.13;;;27.20;61.80;;;;;;4981087;28;90002;-33
2022/08/10 12:28:20;;;;;;;2.80;1.85;;;27.20;57.90;;;;;;4981208;28;89538;-32
2022/08/10 12:30:52;;;;;;;2.05;1.92;;;27.20;58.50;;;;;;4980753;28;88243;-34
2022/08/10 12:33:45;;;;;;;3.30;1.90;;;27.20;56.90;;;;;;4979798;28;90035;-33
2022/08/10 12:36:25;;;;;;;1.90;1.80;;;27.10;56.90;;;;;;4979925;28;90844;-32
2022/08/10 12:38:56;;;;;;;5.82;1.85;;;27.20;56.70;;;;;;4980742;28;90852;-34
2022/08/10 12:41:30;;;;;;;4.80;1.90;;;27.20;58.20;;;;;;4980392;28;89872;-32
2022/08/10 12:44:02;;;;;;;2.90;2.03;;;27.20;57.90;;;;;;4979321;28;90333;-34
2022/08/10 12:46:36;;;;;;;1.50;1.40;;;27.30;59.30;;;;;;4980240;28;89415;-32
2022/08/10 12:49:12;;;;;;;2.85;1.70;;;27.40;60.90;;;;;;4980206;28;89619;-33
2022/08/10 12:51:47;;;;;;;1.77;1.55;;;27.30;59.90;;;;;;4981249;28;89879;-33
2022/08/10 12:54:19;;;;;;;2.25;1.52;;;27.40;58.70;;;;;;4979701;28;91513;-33
2022/08/10 12:56:47;;;;;;;4.05;2.15;;;27.30;58.00;;;;;;4979940;28;91252;-34
2022/08/10 12:59:15;;;;;;;2.92;2.72;;;27.40;57.70;;;;;;4979195;28;89903;-32
2022/08/10 13:01:45;;;;;;;2.78;2.13;;;27.40;56.10;;;;;;4979612;28;88038;-33
2022/08/10 13:04:14;;;;;;;2.83;2.03;;;27.30;56.60;;;;;;4977529;28;90247;-33
2022/08/10 13:06:45;;;;;;;2.10;1.67;;;27.30;56.60;;;;;;4979502;28;90486;-35
2022/08/10 13:09:12;;;;;;;1.83;1.73;;;27.20;57.20;;;;;;4979351;28;89383;-32
2022/08/10 13:11:53;;;;;;;3.80;2.53;;;27.20;57.60;;;;;;4980177;28;88496;-33
2022/08/10 13:14:35;;;;;;;2.10;1.88;;;27.20;58.20;;;;;;4979739;28;90188;-33